METAR Data
IDs: Format: Raw Decoded Include TAF

Data at: 1005 UTC 13 Aug 2022

EETN 130950Z 34006KT 300V030 9999 FEW023 23/17 Q1023 NOSIG